This is the latest recevied weather packets stored in our database for station/object HI8S-13. If no packets are shown the sender has not sent any weather packets the latest 10 day(s).
| Time | Temp. | Humidity | Pressure | Rain* | Wind** | Luminosity | Snow |
|---|---|---|---|---|---|---|---|
| 1777691315 | 25.56° C | 84% | 1015.2 hPa | 0 mm | - | - | - |
| 1777691015 | 25.56° C | 85% | 1015.2 hPa | 0 mm | - | - | - |
| 1777690710 | 25.56° C | 84% | 1015.1 hPa | 0 mm | - | - | - |
| 1777690415 | 25.56° C | 85% | 1015.1 hPa | 0 mm | - | - | - |
| 1777690110 | 25.56° C | 85% | 1015.1 hPa | 0 mm | - | - | - |
| 1777689814 | 25.56° C | 85% | 1015 hPa | 0 mm | - | - | - |
| 1777689516 | 25.56° C | 85% | 1015 hPa | 0 mm | - | - | - |
| 1777689210 | 25.56° C | 85% | 1015 hPa | 0 mm | - | - | - |
| 1777688914 | 25.56° C | 85% | 1014.9 hPa | 0 mm | - | - | - |
| 1777688610 | 25.56° C | 85% | 1014.8 hPa | 0 mm | - | - | - |
| 1777688314 | 26.11° C | 85% | 1014.7 hPa | 0 mm | - | - | - |
| 1777673615 | 28.89° C | 78% | 1012.4 hPa | 0 mm | - | - | - |
| 1777670610 | 30° C | 73% | 1012.4 hPa | 0 mm | - | - | - |
| 1777670307 | 29.44° C | 73% | 1012.3 hPa | 0 mm | - | - | - |
| 1777670013 | 30° C | 72% | 1012.3 hPa | 0 mm | - | - | - |
| 1777669710 | 30° C | 72% | 1012.3 hPa | 0 mm | - | - | - |
| 1777668813 | 30° C | 73% | 1012.2 hPa | 0 mm | - | - | - |
| 1777668215 | 30° C | 72% | 1012.2 hPa | 0 mm | - | - | - |
| 1777667911 | 30° C | 73% | 1012.2 hPa | 0 mm | - | - | - |
| 1777667017 | 30.56° C | 72% | 1012 hPa | 0 mm | - | - | - |
| 1777666107 | 30.56° C | 72% | 1011.8 hPa | 0 mm | - | - | - |
| 1777665813 | 30.56° C | 70% | 1011.7 hPa | 0 mm | - | - | - |
| 1777664914 | 30.56° C | 70% | 1011.8 hPa | 0 mm | - | - | - |
| 1777664608 | 30.56° C | 69% | 1011.9 hPa | 0 mm | - | - | - |
| 1777664314 | 30.56° C | 68% | 1012 hPa | 0 mm | - | - | - |
* Rain latest hour (hover to see other rain measurements)
** Current wind speed in m/s (hover to see current wind gust speed)